Betty K Viii — E5U2577 — position and weather

sailwx.info

Track history (hours):
 
Tides and Currents Weather Stations Pressure Air Temp Water Temp Dewpoint Dewpoint Depression Visibility Wind Speed Wind Dir Waves Ship Positions

Betty K Viii

Last reported at 2017-Sep-22 01:02 UTC. Time now 2017-Sep-22 20:54 UTC.
Position N 25°51' W 079°27'.

Length 78 m; draft 3.6 m.

Type: Cargo ship. MMSI: 518630000.

Date/timePositionNaut miles runAvg speedWind from/ knotsBaromVisibWave heightAir tempDewpointWater temp
2017-Sep-22 01:02N 25°51' W 079°27'1 8.3
2017-Sep-22 00:59N 25°50' W 079°28'4 8.1
2017-Sep-22 00:30N 25°50' W 079°32'4 8.1
2017-Sep-22 00:00N 25°49' W 079°36'4 8.3
2017-Sep-21 23:30N 25°49' W 079°41'4 8.3
2017-Sep-21 23:00N 25°48' W 079°45'4 8.3
2017-Sep-21 22:30N 25°48' W 079°50'4 8.7
2017-Sep-21 22:00N 25°47' W 079°55'5 9.1
2017-Sep-21 21:30N 25°46' W 079°60'5 9.3
2017-Sep-21 21:00N 25°46' W 080°05'5 9.0
2017-Sep-21 20:30N 25°46' W 080°10'2 3.4
2017-Sep-21 20:01N 25°46' W 080°12'2 3.0
2017-Sep-21 19:30N 25°47' W 080°13'1 2.9
2017-Sep-21 19:00N 25°48' W 080°15'1 1.5
2017-Sep-21 18:30N 25°48' W 080°15'0 0.0
2017-Sep-21 18:00N 25°48' W 080°15'0 0.0
2017-Sep-21 17:30N 25°48' W 080°15'0 0.0
2017-Sep-21 17:00N 25°48' W 080°15'0 0.0
2017-Sep-21 16:30N 25°48' W 080°15'0 0.0
2017-Sep-21 16:00N 25°48' W 080°15'0 0.0
2017-Sep-21 15:30N 25°48' W 080°15'0 0.0
2017-Sep-21 15:00N 25°48' W 080°15'0 0.0
2017-Sep-21 14:30N 25°48' W 080°15'0 0.0
2017-Sep-21 14:00N 25°48' W 080°15'0 0.0
2017-Sep-21 13:30N 25°48' W 080°15'0 0.0
2017-Sep-21 13:00N 25°48' W 080°15'0 0.0
2017-Sep-21 12:30N 25°48' W 080°15'0 0.0
2017-Sep-21 12:00N 25°48' W 080°15'0 0.0
2017-Sep-21 11:30N 25°48' W 080°15'0 0.0
2017-Sep-21 11:00N 25°48' W 080°15'0 0.0
2017-Sep-21 10:30N 25°48' W 080°15'0 0.0
2017-Sep-21 10:00N 25°48' W 080°15'0 0.0
2017-Sep-21 09:30N 25°48' W 080°15'0 0.0
2017-Sep-21 09:00N 25°48' W 080°15'0 0.0
2017-Sep-21 08:30N 25°48' W 080°15'0 0.0
2017-Sep-21 08:00N 25°48' W 080°15'0 0.0
2017-Sep-21 07:30N 25°48' W 080°15'0 0.0
2017-Sep-21 07:00N 25°48' W 080°15'0 0.0
2017-Sep-21 06:30N 25°48' W 080°15'0 0.0
2017-Sep-21 06:00N 25°48' W 080°15'0 0.0
2017-Sep-21 05:30N 25°48' W 080°15'0 0.0
2017-Sep-21 05:01N 25°48' W 080°15'0 0.0
2017-Sep-21 04:30N 25°48' W 080°15'0 0.0
2017-Sep-21 04:00N 25°48' W 080°15'0 0.0
2017-Sep-21 03:31N 25°48' W 080°15'0 0.0
2017-Sep-21 03:00N 25°48' W 080°15'0 0.0
2017-Sep-21 02:30N 25°48' W 080°15'0 0.0
2017-Sep-21 02:00N 25°48' W 080°15'0 0.0
2017-Sep-21 01:30N 25°48' W 080°15'0 0.0
2017-Sep-21 01:00N 25°48' W 080°15'0 0.0
2017-Sep-21 00:30N 25°48' W 080°15'0 0.0
2017-Sep-21 00:00N 25°48' W 080°15'0 0.0
2017-Sep-20 23:30N 25°48' W 080°15'0 0.0
2017-Sep-20 23:00N 25°48' W 080°15'0 0.0
2017-Sep-20 22:30N 25°48' W 080°15'0 0.0
2017-Sep-20 22:00N 25°48' W 080°15'0 0.0
2017-Sep-20 21:30N 25°48' W 080°15'0 0.0
2017-Sep-20 21:00N 25°48' W 080°15'0 0.0
2017-Sep-20 20:30N 25°48' W 080°15'0 0.0
2017-Sep-20 20:00N 25°48' W 080°15'0 0.0
2017-Sep-20 19:30N 25°48' W 080°15'0 0.0
2017-Sep-20 19:00N 25°48' W 080°15'0 0.0
2017-Sep-20 18:30N 25°48' W 080°15'0 0.0
2017-Sep-20 18:00N 25°48' W 080°15'0 0.0
2017-Sep-20 17:30N 25°48' W 080°15'0 0.0
2017-Sep-20 17:00N 25°48' W 080°15'0 0.0
2017-Sep-20 16:30N 25°48' W 080°15'0 0.0
2017-Sep-20 16:00N 25°48' W 080°15'0 0.0
2017-Sep-20 15:30N 25°48' W 080°15'0 0.0
2017-Sep-20 15:00N 25°48' W 080°15'0 0.0
2017-Sep-20 14:00N 25°48' W 080°15'0 0.0
2017-Sep-20 13:30N 25°48' W 080°15'0 0.0
2017-Sep-20 13:00N 25°48' W 080°15'0 0.0
2017-Sep-20 12:30N 25°48' W 080°15'0 0.0
2017-Sep-20 12:00N 25°48' W 080°15'0 0.0
2017-Sep-20 11:30N 25°48' W 080°15'0 0.0
2017-Sep-20 11:00N 25°48' W 080°15'0 0.0
2017-Sep-20 10:30N 25°48' W 080°15'0 0.0
2017-Sep-20 10:00N 25°48' W 080°15'0 0.0
2017-Sep-20 09:30N 25°48' W 080°15'0 0.0
2017-Sep-20 09:00N 25°48' W 080°15'0 0.0
2017-Sep-20 08:30N 25°48' W 080°15'0 0.0
2017-Sep-20 08:00N 25°48' W 080°15'0 0.0
2017-Sep-20 07:30N 25°48' W 080°15'0 0.0
2017-Sep-20 07:00N 25°48' W 080°15'0 0.0
2017-Sep-20 06:30N 25°48' W 080°15'0 0.0
2017-Sep-20 06:00N 25°48' W 080°15'0 0.0
2017-Sep-20 05:30N 25°48' W 080°15'0 0.0
2017-Sep-20 05:00N 25°48' W 080°15'0 0.0
2017-Sep-20 04:30N 25°48' W 080°15'0 0.0
2017-Sep-20 04:00N 25°48' W 080°15'0 0.0
2017-Sep-20 03:30N 25°48' W 080°15'0 0.0
2017-Sep-20 03:00N 25°48' W 080°15'0 0.0
2017-Sep-20 02:30N 25°48' W 080°15'0 0.0
2017-Sep-20 02:00N 25°48' W 080°15'0 0.0
2017-Sep-20 01:30N 25°48' W 080°15'0 0.0
2017-Sep-20 01:00N 25°48' W 080°15'0 0.0
2017-Sep-20 00:30N 25°48' W 080°15'0 0.0
2017-Sep-20 00:00N 25°48' W 080°15'0 0.0
2017-Sep-19 23:30N 25°48' W 080°15'0 0.0
2017-Sep-19 23:00N 25°48' W 080°15'0 0.0
2017-Sep-19 22:30N 25°48' W 080°15'0 0.0
2017-Sep-19 22:00N 25°48' W 080°15'1 1.2
2017-Sep-19 21:30N 25°48' W 080°15'1 2.3
2017-Sep-19 21:00N 25°47' W 080°14'2 3.1
2017-Sep-19 20:30N 25°47' W 080°12'1 2.9
2017-Sep-19 20:00N 25°46' W 080°11'4 7.2
2017-Sep-19 19:30N 25°45' W 080°07'2 3.6
2017-Sep-19 19:00N 25°47' W 080°06'0 0.0
2017-Sep-19 18:30N 25°47' W 080°06'0 0.0
2017-Sep-19 18:00N 25°47' W 080°06'0 0.0
2017-Sep-19 17:30N 25°47' W 080°06'0 0.0
2017-Sep-19 17:00N 25°47' W 080°06'0 0.0
2017-Sep-19 16:30N 25°47' W 080°06'0 0.0
2017-Sep-19 16:00N 25°47' W 080°06'0 0.0
2017-Sep-19 15:30N 25°47' W 080°06'0 0.0
2017-Sep-19 15:00N 25°47' W 080°06'0 0.0
2017-Sep-19 14:31N 25°47' W 080°06'3 6.5
2017-Sep-19 14:00N 25°46' W 080°02'5 9.7
2017-Sep-19 13:30N 25°47' W 079°57'5 9.0
2017-Sep-19 13:00N 25°47' W 079°52'4 8.4
2017-Sep-19 12:30N 25°48' W 079°47'4 8.6
2017-Sep-19 12:00N 25°48' W 079°42'4 8.6
2017-Sep-19 11:30N 25°49' W 079°38'4 8.6
2017-Sep-19 11:00N 25°50' W 079°33'4 8.9
2017-Sep-19 10:30N 25°50' W 079°28'10 0.2
2017-Sep-17 19:05N 25°49' W 079°39'2 9.0
2017-Sep-17 18:53N 25°49' W 079°41'3 8.8
2017-Sep-17 18:30N 25°48' W 079°45'4 8.4
2017-Sep-17 18:00N 25°48' W 079°49'5 9.0
2017-Sep-17 17:30N 25°47' W 079°54'5 9.1
2017-Sep-17 17:00N 25°47' W 079°59'5 9.3
2017-Sep-17 16:30N 25°46' W 080°04'4 8.3
2017-Sep-17 16:00N 25°46' W 080°09'2 4.8
2017-Sep-17 15:30N 25°46' W 080°12'1 2.8
2017-Sep-17 15:00N 25°47' W 080°13'1 2.9
2017-Sep-17 14:30N 25°48' W 080°14'1 2.1
2017-Sep-17 14:00N 25°48' W 080°15'0 0.0
2017-Sep-17 13:30N 25°48' W 080°15'0 0.0
2017-Sep-17 13:00N 25°48' W 080°15'0 0.0
2017-Sep-17 12:30N 25°48' W 080°15'0 0.0
2017-Sep-17 12:00N 25°48' W 080°15'0 0.0
2017-Sep-17 11:30N 25°48' W 080°15'0 0.0
2017-Sep-17 11:00N 25°48' W 080°15'0 0.0
2017-Sep-17 10:30N 25°48' W 080°15'0 0.0
2017-Sep-17 10:00N 25°48' W 080°15'0 0.0
2017-Sep-17 09:30N 25°48' W 080°15'0 0.0
2017-Sep-17 09:00N 25°48' W 080°15'0 0.0
2017-Sep-17 08:30N 25°48' W 080°15'0 0.0
2017-Sep-17 08:00N 25°48' W 080°15'0 0.0
2017-Sep-17 07:30N 25°48' W 080°15'0 0.0
2017-Sep-17 07:00N 25°48' W 080°15'0 0.0
2017-Sep-17 06:30N 25°48' W 080°15'0 0.0
2017-Sep-17 06:00N 25°48' W 080°15'0 0.0
2017-Sep-17 05:30N 25°48' W 080°15'0 0.0
2017-Sep-17 05:00N 25°48' W 080°15'0 0.0
2017-Sep-17 04:30N 25°48' W 080°15'0 0.0
2017-Sep-17 04:00N 25°48' W 080°15'0 0.0
2017-Sep-17 03:30N 25°48' W 080°15'0 0.0
2017-Sep-17 03:00N 25°48' W 080°15'0 0.0
2017-Sep-17 02:30N 25°48' W 080°15'0 0.0
2017-Sep-17 02:00N 25°48' W 080°15'0 0.0
2017-Sep-17 01:30N 25°48' W 080°15'0 0.0
2017-Sep-17 01:00N 25°48' W 080°15'0 0.0
2017-Sep-17 00:30N 25°48' W 080°15'0 0.0
2017-Sep-17 00:00N 25°48' W 080°15'0 0.0
2017-Sep-16 23:30N 25°48' W 080°15'0 0.0
2017-Sep-16 23:00N 25°48' W 080°15'0 0.0
2017-Sep-16 22:30N 25°48' W 080°15'0 0.0
2017-Sep-16 22:00N 25°48' W 080°15'0 0.0
2017-Sep-16 21:30N 25°48' W 080°15'0 0.0
2017-Sep-16 21:00N 25°48' W 080°15'0 0.0
2017-Sep-16 20:30N 25°48' W 080°15'0 0.0
2017-Sep-16 20:00N 25°48' W 080°15'0 0.0
2017-Sep-16 19:30N 25°48' W 080°15'0 0.0
2017-Sep-16 19:00N 25°48' W 080°15'0 0.0
2017-Sep-16 18:30N 25°48' W 080°15'0 0.0
2017-Sep-16 18:00N 25°48' W 080°15'0 0.0
2017-Sep-16 17:30N 25°48' W 080°15'0 0.0
2017-Sep-16 17:00N 25°48' W 080°15'0 0.0
2017-Sep-16 16:30N 25°48' W 080°15'0 0.0
2017-Sep-16 16:00N 25°48' W 080°15'0 0.0
2017-Sep-16 15:30N 25°48' W 080°15'0 0.0
2017-Sep-16 15:00N 25°48' W 080°15'0 0.0
2017-Sep-16 14:30N 25°48' W 080°15'0 0.0
2017-Sep-16 14:00N 25°48' W 080°15'0 0.0
2017-Sep-16 13:30N 25°48' W 080°15'0 0.0
2017-Sep-16 13:00N 25°48' W 080°15'0 0.0
2017-Sep-16 12:30N 25°48' W 080°15'0 0.0
2017-Sep-16 12:00N 25°48' W 080°15'0 0.0
2017-Sep-16 11:30N 25°48' W 080°15'0 0.0
2017-Sep-16 11:00N 25°48' W 080°15'0 0.0
2017-Sep-16 10:30N 25°48' W 080°15'0 0.0
2017-Sep-16 10:00N 25°48' W 080°15'0 0.0
2017-Sep-16 09:30N 25°48' W 080°15'0 0.0
2017-Sep-16 09:00N 25°48' W 080°15'0 0.0
2017-Sep-16 08:30N 25°48' W 080°15'0 0.0
2017-Sep-16 08:00N 25°48' W 080°15'0 0.0
2017-Sep-16 07:30N 25°48' W 080°15'0 0.0
2017-Sep-16 07:00N 25°48' W 080°15'0 0.0
2017-Sep-16 06:30N 25°48' W 080°15'0 0.0
2017-Sep-16 06:00N 25°48' W 080°15'0 0.0
2017-Sep-16 05:30N 25°48' W 080°15'0 0.0
2017-Sep-16 05:00N 25°48' W 080°15'0 0.0
2017-Sep-16 04:30N 25°48' W 080°15'0 0.0
2017-Sep-16 04:00N 25°48' W 080°15'0 0.0
2017-Sep-16 03:30N 25°48' W 080°15'0 0.0
2017-Sep-16 03:00N 25°48' W 080°15'0 0.0
2017-Sep-16 02:30N 25°48' W 080°15'0 0.0
2017-Sep-16 02:00N 25°48' W 080°15'0 0.0
2017-Sep-16 01:30N 25°48' W 080°15'0 0.0
2017-Sep-16 01:00N 25°48' W 080°15'0 0.0
2017-Sep-16 00:30N 25°48' W 080°15'0 0.0
2017-Sep-16 00:00N 25°48' W 080°15'0 0.0
2017-Sep-15 23:30N 25°48' W 080°15'0 0.0
2017-Sep-15 23:00N 25°48' W 080°15'0 0.0
2017-Sep-15 22:30N 25°48' W 080°15'0 0.0
2017-Sep-15 22:00N 25°48' W 080°15'0 0.0
2017-Sep-15 21:30N 25°48' W 080°15'0 0.0
2017-Sep-15 21:00N 25°48' W 080°15'0 0.0
2017-Sep-15 20:30N 25°48' W 080°15'0 0.0
2017-Sep-15 20:00N 25°48' W 080°15'0 0.0
2017-Sep-15 19:30N 25°48' W 080°15'0 0.0
2017-Sep-15 19:00N 25°48' W 080°15'0 0.0
2017-Sep-15 18:30N 25°48' W 080°15'0 0.0
2017-Sep-15 18:00N 25°48' W 080°15'0 0.0
2017-Sep-15 17:30N 25°48' W 080°15'0 0.0
2017-Sep-15 17:00N 25°48' W 080°15'0 0.6
2017-Sep-15 16:30N 25°48' W 080°15'1 1.7
2017-Sep-15 16:00N 25°47' W 080°14'1 2.0
2017-Sep-15 15:30N 25°47' W 080°13'0 0.0
2017-Sep-15 15:00N 25°47' W 080°13'1 2.2
2017-Sep-15 14:30N 25°47' W 080°12'1 2.3
2017-Sep-15 14:00N 25°46' W 080°11'2 4.4
2017-Sep-15 13:30N 25°46' W 080°08'2 4.8
2017-Sep-15 13:00N 25°46' W 080°06'2 3.9
2017-Sep-15 12:30N 25°47' W 080°04'1 2.0
2017-Sep-15 12:00N 25°46' W 080°03'1 2.7
2017-Sep-15 11:30N 25°46' W 080°02'3 5.3
2017-Sep-15 11:00N 25°46' W 079°59'4 8.5
2017-Sep-15 10:30N 25°46' W 079°54'5 9.6
2017-Sep-15 10:00N 25°47' W 079°49'5 9.6
2017-Sep-15 09:30N 25°47' W 079°44'5 9.4
2017-Sep-15 09:00N 25°48' W 079°39'5 9.1
2017-Sep-15 08:30N 25°49' W 079°34'5 9.1
2017-Sep-15 08:00N 25°50' W 079°29'6 9.6
2017-Sep-15 07:25N 25°51' W 079°23'  
Track history (hours):
 
Tides and Currents Weather Stations Pressure Air Temp Water Temp Dewpoint Dewpoint Depression Visibility Wind Speed Wind Dir Waves Ship Positions

Betty K Viii

Last reported at 2017-Sep-22 01:02 UTC. Time now 2017-Sep-22 20:54 UTC.
Position N 25°51' W 079°27'.

Length 78 m; draft 3.6 m.

Type: Cargo ship. MMSI: 518630000.

Date/timePositionNaut miles runAvg speedWind from/ knotsBaromVisibWave heightAir tempDewpointWater temp
2017-Sep-22 01:02N 25°51' W 079°27'1 8.3
2017-Sep-22 00:59N 25°50' W 079°28'4 8.1
2017-Sep-22 00:30N 25°50' W 079°32'4 8.1
2017-Sep-22 00:00N 25°49' W 079°36'4 8.3
2017-Sep-21 23:30N 25°49' W 079°41'4 8.3
2017-Sep-21 23:00N 25°48' W 079°45'4 8.3
2017-Sep-21 22:30N 25°48' W 079°50'4 8.7
2017-Sep-21 22:00N 25°47' W 079°55'5 9.1
2017-Sep-21 21:30N 25°46' W 079°60'5 9.3
2017-Sep-21 21:00N 25°46' W 080°05'5 9.0
2017-Sep-21 20:30N 25°46' W 080°10'2 3.4
2017-Sep-21 20:01N 25°46' W 080°12'2 3.0
2017-Sep-21 19:30N 25°47' W 080°13'1 2.9
2017-Sep-21 19:00N 25°48' W 080°15'1 1.5
2017-Sep-21 18:30N 25°48' W 080°15'0 0.0
2017-Sep-21 18:00N 25°48' W 080°15'0 0.0
2017-Sep-21 17:30N 25°48' W 080°15'0 0.0
2017-Sep-21 17:00N 25°48' W 080°15'0 0.0
2017-Sep-21 16:30N 25°48' W 080°15'0 0.0
2017-Sep-21 16:00N 25°48' W 080°15'0 0.0
2017-Sep-21 15:30N 25°48' W 080°15'0 0.0
2017-Sep-21 15:00N 25°48' W 080°15'0 0.0
2017-Sep-21 14:30N 25°48' W 080°15'0 0.0
2017-Sep-21 14:00N 25°48' W 080°15'0 0.0
2017-Sep-21 13:30N 25°48' W 080°15'0 0.0
2017-Sep-21 13:00N 25°48' W 080°15'0 0.0
2017-Sep-21 12:30N 25°48' W 080°15'0 0.0
2017-Sep-21 12:00N 25°48' W 080°15'0 0.0
2017-Sep-21 11:30N 25°48' W 080°15'0 0.0
2017-Sep-21 11:00N 25°48' W 080°15'0 0.0
2017-Sep-21 10:30N 25°48' W 080°15'0 0.0
2017-Sep-21 10:00N 25°48' W 080°15'0 0.0
2017-Sep-21 09:30N 25°48' W 080°15'0 0.0
2017-Sep-21 09:00N 25°48' W 080°15'0 0.0
2017-Sep-21 08:30N 25°48' W 080°15'0 0.0
2017-Sep-21 08:00N 25°48' W 080°15'0 0.0
2017-Sep-21 07:30N 25°48' W 080°15'0 0.0
2017-Sep-21 07:00N 25°48' W 080°15'0 0.0
2017-Sep-21 06:30N 25°48' W 080°15'0 0.0
2017-Sep-21 06:00N 25°48' W 080°15'0 0.0
2017-Sep-21 05:30N 25°48' W 080°15'0 0.0
2017-Sep-21 05:01N 25°48' W 080°15'0 0.0
2017-Sep-21 04:30N 25°48' W 080°15'0 0.0
2017-Sep-21 04:00N 25°48' W 080°15'0 0.0
2017-Sep-21 03:31N 25°48' W 080°15'0 0.0
2017-Sep-21 03:00N 25°48' W 080°15'0 0.0
2017-Sep-21 02:30N 25°48' W 080°15'0 0.0
2017-Sep-21 02:00N 25°48' W 080°15'0 0.0
2017-Sep-21 01:30N 25°48' W 080°15'0 0.0
2017-Sep-21 01:00N 25°48' W 080°15'0 0.0
2017-Sep-21 00:30N 25°48' W 080°15'0 0.0
2017-Sep-21 00:00N 25°48' W 080°15'0 0.0
2017-Sep-20 23:30N 25°48' W 080°15'0 0.0
2017-Sep-20 23:00N 25°48' W 080°15'0 0.0
2017-Sep-20 22:30N 25°48' W 080°15'0 0.0
2017-Sep-20 22:00N 25°48' W 080°15'0 0.0
2017-Sep-20 21:30N 25°48' W 080°15'0 0.0
2017-Sep-20 21:00N 25°48' W 080°15'0 0.0
2017-Sep-20 20:30N 25°48' W 080°15'0 0.0
2017-Sep-20 20:00N 25°48' W 080°15'0 0.0
2017-Sep-20 19:30N 25°48' W 080°15'0 0.0
2017-Sep-20 19:00N 25°48' W 080°15'0 0.0
2017-Sep-20 18:30N 25°48' W 080°15'0 0.0
2017-Sep-20 18:00N 25°48' W 080°15'0 0.0
2017-Sep-20 17:30N 25°48' W 080°15'0 0.0
2017-Sep-20 17:00N 25°48' W 080°15'0 0.0
2017-Sep-20 16:30N 25°48' W 080°15'0 0.0
2017-Sep-20 16:00N 25°48' W 080°15'0 0.0
2017-Sep-20 15:30N 25°48' W 080°15'0 0.0
2017-Sep-20 15:00N 25°48' W 080°15'0 0.0
2017-Sep-20 14:00N 25°48' W 080°15'0 0.0
2017-Sep-20 13:30N 25°48' W 080°15'0 0.0
2017-Sep-20 13:00N 25°48' W 080°15'0 0.0
2017-Sep-20 12:30N 25°48' W 080°15'0 0.0
2017-Sep-20 12:00N 25°48' W 080°15'0 0.0
2017-Sep-20 11:30N 25°48' W 080°15'0 0.0
2017-Sep-20 11:00N 25°48' W 080°15'0 0.0
2017-Sep-20 10:30N 25°48' W 080°15'0 0.0
2017-Sep-20 10:00N 25°48' W 080°15'0 0.0
2017-Sep-20 09:30N 25°48' W 080°15'0 0.0
2017-Sep-20 09:00N 25°48' W 080°15'0 0.0
2017-Sep-20 08:30N 25°48' W 080°15'0 0.0
2017-Sep-20 08:00N 25°48' W 080°15'0 0.0
2017-Sep-20 07:30N 25°48' W 080°15'0 0.0
2017-Sep-20 07:00N 25°48' W 080°15'0 0.0
2017-Sep-20 06:30N 25°48' W 080°15'0 0.0
2017-Sep-20 06:00N 25°48' W 080°15'0 0.0
2017-Sep-20 05:30N 25°48' W 080°15'0 0.0
2017-Sep-20 05:00N 25°48' W 080°15'0 0.0
2017-Sep-20 04:30N 25°48' W 080°15'0 0.0
2017-Sep-20 04:00N 25°48' W 080°15'0 0.0
2017-Sep-20 03:30N 25°48' W 080°15'0 0.0
2017-Sep-20 03:00N 25°48' W 080°15'0 0.0
2017-Sep-20 02:30N 25°48' W 080°15'0 0.0
2017-Sep-20 02:00N 25°48' W 080°15'0 0.0
2017-Sep-20 01:30N 25°48' W 080°15'0 0.0
2017-Sep-20 01:00N 25°48' W 080°15'0 0.0
2017-Sep-20 00:30N 25°48' W 080°15'0 0.0
2017-Sep-20 00:00N 25°48' W 080°15'0 0.0
2017-Sep-19 23:30N 25°48' W 080°15'0 0.0
2017-Sep-19 23:00N 25°48' W 080°15'0 0.0
2017-Sep-19 22:30N 25°48' W 080°15'0 0.0
2017-Sep-19 22:00N 25°48' W 080°15'1 1.2
2017-Sep-19 21:30N 25°48' W 080°15'1 2.3
2017-Sep-19 21:00N 25°47' W 080°14'2 3.1
2017-Sep-19 20:30N 25°47' W 080°12'1 2.9
2017-Sep-19 20:00N 25°46' W 080°11'4 7.2
2017-Sep-19 19:30N 25°45' W 080°07'2 3.6
2017-Sep-19 19:00N 25°47' W 080°06'0 0.0
2017-Sep-19 18:30N 25°47' W 080°06'0 0.0
2017-Sep-19 18:00N 25°47' W 080°06'0 0.0
2017-Sep-19 17:30N 25°47' W 080°06'0 0.0
2017-Sep-19 17:00N 25°47' W 080°06'0 0.0
2017-Sep-19 16:30N 25°47' W 080°06'0 0.0
2017-Sep-19 16:00N 25°47' W 080°06'0 0.0
2017-Sep-19 15:30N 25°47' W 080°06'0 0.0
2017-Sep-19 15:00N 25°47' W 080°06'0 0.0
2017-Sep-19 14:31N 25°47' W 080°06'3 6.5
2017-Sep-19 14:00N 25°46' W 080°02'5 9.7
2017-Sep-19 13:30N 25°47' W 079°57'5 9.0
2017-Sep-19 13:00N 25°47' W 079°52'4 8.4
2017-Sep-19 12:30N 25°48' W 079°47'4 8.6
2017-Sep-19 12:00N 25°48' W 079°42'4 8.6
2017-Sep-19 11:30N 25°49' W 079°38'4 8.6
2017-Sep-19 11:00N 25°50' W 079°33'4 8.9
2017-Sep-19 10:30N 25°50' W 079°28'10 0.2
2017-Sep-17 19:05N 25°49' W 079°39'2 9.0
2017-Sep-17 18:53N 25°49' W 079°41'3 8.8
2017-Sep-17 18:30N 25°48' W 079°45'4 8.4
2017-Sep-17 18:00N 25°48' W 079°49'5 9.0
2017-Sep-17 17:30N 25°47' W 079°54'5 9.1
2017-Sep-17 17:00N 25°47' W 079°59'5 9.3
2017-Sep-17 16:30N 25°46' W 080°04'4 8.3
2017-Sep-17 16:00N 25°46' W 080°09'2 4.8
2017-Sep-17 15:30N 25°46' W 080°12'1 2.8
2017-Sep-17 15:00N 25°47' W 080°13'1 2.9
2017-Sep-17 14:30N 25°48' W 080°14'1 2.1
2017-Sep-17 14:00N 25°48' W 080°15'0 0.0
2017-Sep-17 13:30N 25°48' W 080°15'0 0.0
2017-Sep-17 13:00N 25°48' W 080°15'0 0.0
2017-Sep-17 12:30N 25°48' W 080°15'0 0.0
2017-Sep-17 12:00N 25°48' W 080°15'0 0.0
2017-Sep-17 11:30N 25°48' W 080°15'0 0.0
2017-Sep-17 11:00N 25°48' W 080°15'0 0.0
2017-Sep-17 10:30N 25°48' W 080°15'0 0.0
2017-Sep-17 10:00N 25°48' W 080°15'0 0.0
2017-Sep-17 09:30N 25°48' W 080°15'0 0.0
2017-Sep-17 09:00N 25°48' W 080°15'0 0.0
2017-Sep-17 08:30N 25°48' W 080°15'0 0.0
2017-Sep-17 08:00N 25°48' W 080°15'0 0.0
2017-Sep-17 07:30N 25°48' W 080°15'0 0.0
2017-Sep-17 07:00N 25°48' W 080°15'0 0.0
2017-Sep-17 06:30N 25°48' W 080°15'0 0.0
2017-Sep-17 06:00N 25°48' W 080°15'0 0.0
2017-Sep-17 05:30N 25°48' W 080°15'0 0.0
2017-Sep-17 05:00N 25°48' W 080°15'0 0.0
2017-Sep-17 04:30N 25°48' W 080°15'0 0.0
2017-Sep-17 04:00N 25°48' W 080°15'0 0.0
2017-Sep-17 03:30N 25°48' W 080°15'0 0.0
2017-Sep-17 03:00N 25°48' W 080°15'0 0.0
2017-Sep-17 02:30N 25°48' W 080°15'0 0.0
2017-Sep-17 02:00N 25°48' W 080°15'0 0.0
2017-Sep-17 01:30N 25°48' W 080°15'0 0.0
2017-Sep-17 01:00N 25°48' W 080°15'0 0.0
2017-Sep-17 00:30N 25°48' W 080°15'0 0.0
2017-Sep-17 00:00N 25°48' W 080°15'0 0.0
2017-Sep-16 23:30N 25°48' W 080°15'0 0.0
2017-Sep-16 23:00N 25°48' W 080°15'0 0.0
2017-Sep-16 22:30N 25°48' W 080°15'0 0.0
2017-Sep-16 22:00N 25°48' W 080°15'0 0.0
2017-Sep-16 21:30N 25°48' W 080°15'0 0.0
2017-Sep-16 21:00N 25°48' W 080°15'0 0.0
2017-Sep-16 20:30N 25°48' W 080°15'0 0.0
2017-Sep-16 20:00N 25°48' W 080°15'0 0.0
2017-Sep-16 19:30N 25°48' W 080°15'0 0.0
2017-Sep-16 19:00N 25°48' W 080°15'0 0.0
2017-Sep-16 18:30N 25°48' W 080°15'0 0.0
2017-Sep-16 18:00N 25°48' W 080°15'0 0.0
2017-Sep-16 17:30N 25°48' W 080°15'0 0.0
2017-Sep-16 17:00N 25°48' W 080°15'0 0.0
2017-Sep-16 16:30N 25°48' W 080°15'0 0.0
2017-Sep-16 16:00N 25°48' W 080°15'0 0.0
2017-Sep-16 15:30N 25°48' W 080°15'0 0.0
2017-Sep-16 15:00N 25°48' W 080°15'0 0.0
2017-Sep-16 14:30N 25°48' W 080°15'0 0.0
2017-Sep-16 14:00N 25°48' W 080°15'0 0.0
2017-Sep-16 13:30N 25°48' W 080°15'0 0.0
2017-Sep-16 13:00N 25°48' W 080°15'0 0.0
2017-Sep-16 12:30N 25°48' W 080°15'0 0.0
2017-Sep-16 12:00N 25°48' W 080°15'0 0.0
2017-Sep-16 11:30N 25°48' W 080°15'0 0.0
2017-Sep-16 11:00N 25°48' W 080°15'0 0.0
2017-Sep-16 10:30N 25°48' W 080°15'0 0.0
2017-Sep-16 10:00N 25°48' W 080°15'0 0.0
2017-Sep-16 09:30N 25°48' W 080°15'0 0.0
2017-Sep-16 09:00N 25°48' W 080°15'0 0.0
2017-Sep-16 08:30N 25°48' W 080°15'0 0.0
2017-Sep-16 08:00N 25°48' W 080°15'0 0.0
2017-Sep-16 07:30N 25°48' W 080°15'0 0.0
2017-Sep-16 07:00N 25°48' W 080°15'0 0.0
2017-Sep-16 06:30N 25°48' W 080°15'0 0.0
2017-Sep-16 06:00N 25°48' W 080°15'0 0.0
2017-Sep-16 05:30N 25°48' W 080°15'0 0.0
2017-Sep-16 05:00N 25°48' W 080°15'0 0.0
2017-Sep-16 04:30N 25°48' W 080°15'0 0.0
2017-Sep-16 04:00N 25°48' W 080°15'0 0.0
2017-Sep-16 03:30N 25°48' W 080°15'0 0.0
2017-Sep-16 03:00N 25°48' W 080°15'0 0.0
2017-Sep-16 02:30N 25°48' W 080°15'0 0.0
2017-Sep-16 02:00N 25°48' W 080°15'0 0.0
2017-Sep-16 01:30N 25°48' W 080°15'0 0.0
2017-Sep-16 01:00N 25°48' W 080°15'0 0.0
2017-Sep-16 00:30N 25°48' W 080°15'0 0.0
2017-Sep-16 00:00N 25°48' W 080°15'0 0.0
2017-Sep-15 23:30N 25°48' W 080°15'0 0.0
2017-Sep-15 23:00N 25°48' W 080°15'0 0.0
2017-Sep-15 22:30N 25°48' W 080°15'0 0.0
2017-Sep-15 22:00N 25°48' W 080°15'0 0.0
2017-Sep-15 21:30N 25°48' W 080°15'0 0.0
2017-Sep-15 21:00N 25°48' W 080°15'0 0.0
2017-Sep-15 20:30N 25°48' W 080°15'0 0.0
2017-Sep-15 20:00N 25°48' W 080°15'0 0.0
2017-Sep-15 19:30N 25°48' W 080°15'0 0.0
2017-Sep-15 19:00N 25°48' W 080°15'0 0.0
2017-Sep-15 18:30N 25°48' W 080°15'0 0.0
2017-Sep-15 18:00N 25°48' W 080°15'0 0.0
2017-Sep-15 17:30N 25°48' W 080°15'0 0.0
2017-Sep-15 17:00N 25°48' W 080°15'0 0.6
2017-Sep-15 16:30N 25°48' W 080°15'1 1.7
2017-Sep-15 16:00N 25°47' W 080°14'1 2.0
2017-Sep-15 15:30N 25°47' W 080°13'0 0.0
2017-Sep-15 15:00N 25°47' W 080°13'1 2.2
2017-Sep-15 14:30N 25°47' W 080°12'1 2.3
2017-Sep-15 14:00N 25°46' W 080°11'2 4.4
2017-Sep-15 13:30N 25°46' W 080°08'2 4.8
2017-Sep-15 13:00N 25°46' W 080°06'2 3.9
2017-Sep-15 12:30N 25°47' W 080°04'1 2.0
2017-Sep-15 12:00N 25°46' W 080°03'1 2.7
2017-Sep-15 11:30N 25°46' W 080°02'3 5.3
2017-Sep-15 11:00N 25°46' W 079°59'4 8.5
2017-Sep-15 10:30N 25°46' W 079°54'5 9.6
2017-Sep-15 10:00N 25°47' W 079°49'5 9.6
2017-Sep-15 09:30N 25°47' W 079°44'5 9.4
2017-Sep-15 09:00N 25°48' W 079°39'5 9.1
2017-Sep-15 08:30N 25°49' W 079°34'5 9.1
2017-Sep-15 08:00N 25°50' W 079°29'6 9.6
2017-Sep-15 07:25N 25°51' W 079°23'  

Dump ship's entire track history